PROFILE

 METAR AND TAF INFORMATION
ADDS - METARS form results

(0232 UTC 20 February 2020)
http://aviationweather.gov/metar/data/
 
TAF COR GVNP 191700Z 1918/2024 03018KT 8000 NSC PROB30 TEMPO 2010/2015 03018G28KT 

 AIRPORT MAP

 RUNWAY INFORMATION
Runway 03 Runway length 0 ft Runway width 0 ft
Runway elevation 312 ft Runway displaced threshold 0 ft Runway heading 0
Runway 21 Runway length 0 ft Runway width 0 ft
Runway elevation 324 ft Runway displaced threshold 0 ft Runway heading 0
Runway 03L Runway length 4209 ft Runway width 98 ft
Runway elevation 0 ft Runway displaced threshold 0 ft Runway heading 22
Runway 21R Runway length 4209 ft Runway width 98 ft
Runway elevation 0 ft Runway displaced threshold 0 ft Runway heading 202
Runway 03R Runway length 6876 ft Runway width 148 ft
Runway elevation 0 ft Runway displaced threshold 650 ft Runway heading 22
Runway 21L Runway length 6876 ft Runway width 148 ft
Runway elevation 0 ft Runway displaced threshold 0 ft Runway heading 202

 AIRPORT FREQUENCIES
Type APP Name PRAIA APP Frequency 118.2 MHZ
Type TWR Name PRAIA TWR Frequency 118.2 MHZ

 AIRPORT NEAR NAVIGATION AIDS